Time;durP1;ratioP1;P1;durP2;ratioP2;P2;SDS_P1;SDS_P2;PMS_P1;PMS_P2;Temp;Humidity;BMP_temperature;BMP_pressure;BME280_temperature;BME280_humidity;BME280_pressure;Samples;Min_cycle;Max_cycle;Signal;HPM_P1;HPM_P2
2022/05/26 00:01:16;;;;;;;;;;;;;;;;;;5079161;28;1167;-74
2022/05/26 00:03:42;;;;;;;;;;;;;;;;;;5082076;28;1953;-74
2022/05/26 00:06:09;;;;;;;;;;;;;;;;;;5080686;28;1377;-74
2022/05/26 00:08:36;;;;;;;;;;;;;;;;;;5080416;28;1283;-74
2022/05/26 00:11:02;;;;;;;;;;;;;;;;;;5079837;28;1522;-74
2022/05/26 00:13:27;;;;;;;;;;;;;;;;;;5080365;28;1030;-74
2022/05/26 00:15:52;;;;;;;;;;;;;;;;;;5079678;28;1317;-74
2022/05/26 00:18:17;;;;;;;;;;;;;;;;;;5081436;28;1223;-74
2022/05/26 00:20:43;;;;;;;;;;;;;;;;;;5081874;28;1281;-74
2022/05/26 00:23:09;;;;;;;;;;;;;;;;;;5082593;28;1945;-75
2022/05/26 00:25:34;;;;;;;;;;;;;;;;;;5075376;28;1180;-74
2022/05/26 00:28:00;;;;;;;;;;;;;;;;;;5082750;28;1313;-74
2022/05/26 00:30:25;;;;;;;;;;;;;;;;;;5057729;28;1242;-74
2022/05/26 00:32:50;;;;;;;;;;;;;;;;;;5067828;28;1072;-74
2022/05/26 00:35:16;;;;;;;;;;;;;;;;;;5067048;28;1199;-74
2022/05/26 00:37:42;;;;;;;;;;;;;;;;;;5087175;28;750;-75
2022/05/26 00:40:08;;;;;;;;;;;;;;;;;;5082376;28;1300;-74
2022/05/26 00:42:34;;;;;;;;;;;;;;;;;;5083039;28;1318;-75
2022/05/26 00:44:59;;;;;;;;;;;;;;;;;;5065835;28;1906;-74
2022/05/26 00:47:27;;;;;;;;;;;;;;;;;;5083400;28;1246;-74
2022/05/26 00:50:04;;;;;;;;;;;;;;;;;;5086553;28;841;-74
2022/05/26 00:52:35;;;;;;;;;;;;;;;;;;5085890;28;1391;-74
2022/05/26 00:55:04;;;;;;;;;;;;;;;;;;5084544;28;1043;-74
2022/05/26 00:57:48;;;;;;;;;;;;;;;;;;5085488;28;1328;-75
2022/05/26 01:00:19;;;;;;;;;;;;;;;;;;5077127;28;1179;-74
2022/05/26 01:02:47;;;;;;;;;;;;;;;;;;5066684;28;1199;-74
2022/05/26 01:05:19;;;;;;;;;;;;;;;;;;5063055;28;1905;-74
2022/05/26 01:07:44;;;;;;;;;;;;;;;;;;5080518;28;1294;-74
2022/05/26 01:10:11;;;;;;;;;;;;;;;;;;5075042;28;1243;-74
2022/05/26 01:12:36;;;;;;;;;;;;;;;;;;5061774;28;1327;-74
2022/05/26 01:15:10;;;;;;;;;;;;;;;;;;5047552;28;1220;-74
2022/05/26 01:17:54;;;;;;;;;;;;;;;;;;5064434;28;1182;-74
2022/05/26 01:20:19;;;;;;;;;;;;;;;;;;5063581;28;1392;-74
2022/05/26 01:22:47;;;;;;;;;;;;;;;;;;5065439;28;1094;-74
2022/05/26 01:25:31;;;;;;;;;;;;;;;;;;5063402;28;1914;-74
2022/05/26 01:28:10;;;;;;;;;;;;;;;;;;5060622;28;1484;-74
2022/05/26 01:30:55;;;;;;;;;;;;;;;;;;5069246;28;1206;-75
2022/05/26 01:33:29;;;;;;;;;;;;;;;;;;5048705;28;1155;-73
2022/05/26 01:36:10;;;;;;;;;;;;;;;;;;5065636;28;1239;-74
2022/05/26 01:38:47;;;;;;;;;;;;;;;;;;5063026;28;1424;-74
2022/05/26 01:41:12;;;;;;;;;;;;;;;;;;5065919;28;1278;-75
2022/05/26 01:43:52;;;;;;;;;;;;;;;;;;5080950;28;1967;-74
2022/05/26 01:46:27;;;;;;;;;;;;;;;;;;5080004;28;1111;-74
2022/05/26 01:48:55;;;;;;;;;;;;;;;;;;5065885;28;1097;-75
2022/05/26 01:51:26;;;;;;;;;;;;;;;;;;5082452;28;1199;-74
2022/05/26 01:53:57;;;;;;;;;;;;;;;;;;5074402;28;1172;-74
2022/05/26 01:56:31;;;;;;;;;;;;;;;;;;5072731;28;1152;-74
2022/05/26 01:59:02;;;;;;;;;;;;;;;;;;5084333;28;959;-75
2022/05/26 02:01:31;;;;;;;;;;;;;;;;;;5079303;28;1158;-74
2022/05/26 02:03:58;;;;;;;;;;;;;;;;;;5083089;28;1890;-74
2022/05/26 02:06:26;;;;;;;;;;;;;;;;;;5044284;28;1279;-74
2022/05/26 02:08:51;;;;;;;;;;;;;;;;;;5066143;28;1298;-74
2022/05/26 02:11:18;;;;;;;;;;;;;;;;;;5061344;28;1079;-74
2022/05/26 02:13:43;;;;;;;;;;;;;;;;;;5061407;28;945;-74
2022/05/26 02:16:12;;;;;;;;;;;;;;;;;;5060346;28;1437;-74
2022/05/26 02:18:56;;;;;;;;;;;;;;;;;;5062413;28;1163;-75
2022/05/26 02:21:40;;;;;;;;;;;;;;;;;;5062340;28;1247;-75
2022/05/26 02:24:07;;;;;;;;;;;;;;;;;;5065305;28;1885;-74
2022/05/26 02:26:33;;;;;;;;;;;;;;;;;;5058497;28;1213;-74
2022/05/26 02:31:43;;;;;;;;;;;;;;;;;;5059223;28;1005;-74
2022/05/26 02:34:09;;;;;;;;;;;;;;;;;;5066168;28;1176;-74
2022/05/26 02:36:36;;;;;;;;;;;;;;;;;;5059774;28;1277;-75
2022/05/26 02:39:01;;;;;;;;;;;;;;;;;;5064698;28;1445;-74
2022/05/26 02:41:27;;;;;;;;;;;;;;;;;;5059329;28;1216;-74
2022/05/26 02:43:54;;;;;;;;;;;;;;;;;;5063028;28;1949;-74
2022/05/26 02:46:37;;;;;;;;;;;;;;;;;;5058458;28;1357;-75
2022/05/26 02:49:19;;;;;;;;;;;;;;;;;;5064462;28;1149;-75
2022/05/26 02:51:44;;;;;;;;;;;;;;;;;;5061374;28;1196;-75
2022/05/26 02:54:10;;;;;;;;;;;;;;;;;;5063502;28;1196;-75
2022/05/26 02:56:54;;;;;;;;;;;;;;;;;;5058381;28;1381;-75
2022/05/26 02:59:42;;;;;;;;;;;;;;;;;;5064240;28;1377;-75
2022/05/26 03:02:12;;;;;;;;;;;;;;;;;;5073552;28;1147;-74
2022/05/26 03:04:42;;;;;;;;;;;;;;;;;;5081230;28;1949;-75
2022/05/26 03:07:09;;;;;;;;;;;;;;;;;;5083001;28;1159;-74
2022/05/26 03:09:36;;;;;;;;;;;;;;;;;;5080391;28;1218;-75
2022/05/26 03:12:02;;;;;;;;;;;;;;;;;;5081622;28;1148;-74
2022/05/26 03:14:28;;;;;;;;;;;;;;;;;;5081332;28;1137;-75
2022/05/26 03:16:53;;;;;;;;;;;;;;;;;;5077146;28;1207;-75
2022/05/26 03:19:19;;;;;;;;;;;;;;;;;;5083566;28;1285;-74
2022/05/26 03:21:45;;;;;;;;;;;;;;;;;;5062379;28;1212;-74
2022/05/26 03:24:10;;;;;;;;;;;;;;;;;;5084537;28;1894;-74
2022/05/26 03:26:36;;;;;;;;;;;;;;;;;;5076177;28;1289;-75
2022/05/26 03:29:02;;;;;;;;;;;;;;;;;;5084214;28;1245;-75
2022/05/26 03:31:27;;;;;;;;;;;;;;;;;;5058531;28;1149;-74
2022/05/26 03:42:05;;;;;;;;;;;;;;;;;;5080925;28;1175;-75
2022/05/26 03:44:32;;;;;;;;;;;;;;;;;;5073848;28;1969;-75
2022/05/26 03:46:58;;;;;;;;;;;;;;;;;;5059123;28;1423;-75
2022/05/26 03:49:23;;;;;;;;;;;;;;;;;;5062406;28;1205;-74
2022/05/26 03:51:48;;;;;;;;;;;;;;;;;;5057902;28;1228;-74
2022/05/26 03:54:14;;;;;;;;;;;;;;;;;;5045547;28;1252;-75
2022/05/26 03:56:39;;;;;;;;;;;;;;;;;;5057491;28;1133;-74
2022/05/26 03:59:05;;;;;;;;;;;;;;;;;;5045665;28;1259;-75
2022/05/26 04:01:34;;;;;;;;;;;;;;;;;;5043663;28;1272;-75
2022/05/26 04:03:59;;;;;;;;;;;;;;;;;;5065172;28;1890;-74
2022/05/26 04:06:28;;;;;;;;;;;;;;;;;;5077865;28;1077;-74
2022/05/26 04:08:53;;;;;;;;;;;;;;;;;;5061824;28;841;-74
2022/05/26 04:11:18;;;;;;;;;;;;;;;;;;5060506;28;1175;-75
2022/05/26 04:13:44;;;;;;;;;;;;;;;;;;5045617;28;1318;-75
2022/05/26 04:16:09;;;;;;;;;;;;;;;;;;5044525;28;1188;-75
2022/05/26 04:18:39;;;;;;;;;;;;;;;;;;5063486;28;909;-74
2022/05/26 04:21:05;;;;;;;;;;;;;;;;;;5061096;28;1191;-75
2022/05/26 04:23:30;;;;;;;;;;;;;;;;;;5063230;28;1889;-74
2022/05/26 04:25:56;;;;;;;;;;;;;;;;;;5060436;28;856;-74
2022/05/26 04:28:21;;;;;;;;;;;;;;;;;;5063397;28;916;-74
2022/05/26 04:30:47;;;;;;;;;;;;;;;;;;5058363;28;853;-74
2022/05/26 04:33:12;;;;;;;;;;;;;;;;;;5071603;28;1464;-74
2022/05/26 04:35:38;;;;;;;;;;;;;;;;;;5079193;28;761;-75
2022/05/26 04:38:03;;;;;;;;;;;;;;;;;;5083266;28;1333;-74
2022/05/26 04:40:29;;;;;;;;;;;;;;;;;;5079936;28;1170;-75
2022/05/26 04:42:54;;;;;;;;;;;;;;;;;;5061035;28;1195;-75
2022/05/26 04:45:19;;;;;;;;;;;;;;;;;;5068366;28;1988;-75
2022/05/26 04:47:44;;;;;;;;;;;;;;;;;;5040985;28;1204;-75
2022/05/26 04:50:10;;;;;;;;;;;;;;;;;;5060998;28;837;-73
2022/05/26 04:52:36;;;;;;;;;;;;;;;;;;5063462;28;893;-75
2022/05/26 04:55:02;;;;;;;;;;;;;;;;;;5059325;28;1440;-75
2022/05/26 04:57:29;;;;;;;;;;;;;;;;;;5044258;28;1052;-75
2022/05/26 04:59:54;;;;;;;;;;;;;;;;;;5041701;28;1220;-73
2022/05/26 05:02:21;;;;;;;;;;;;;;;;;;5060261;28;1274;-73
2022/05/26 05:04:48;;;;;;;;;;;;;;;;;;5059458;28;1961;-73
2022/05/26 05:07:15;;;;;;;;;;;;;;;;;;5059360;28;1159;-73
2022/05/26 05:09:40;;;;;;;;;;;;;;;;;;5058633;28;1376;-74
2022/05/26 05:12:06;;;;;;;;;;;;;;;;;;5060986;28;1302;-74
2022/05/26 05:14:41;;;;;;;;;;;;;;;;;;5063500;28;1279;-73
2022/05/26 05:17:07;;;;;;;;;;;;;;;;;;5062095;28;1251;-73
2022/05/26 05:19:32;;;;;;;;;;;;;;;;;;5069686;28;1401;-74
2022/05/26 05:22:01;;;;;;;;;;;;;;;;;;5060235;28;1031;-73
2022/05/26 05:24:33;;;;;;;;;;;;;;;;;;5078081;28;1957;-74
2022/05/26 05:27:01;;;;;;;;;;;;;;;;;;5080917;28;1096;-74
2022/05/26 05:29:29;;;;;;;;;;;;;;;;;;5086022;28;1132;-74
2022/05/26 05:31:58;;;;;;;;;;;;;;;;;;5081336;28;1034;-74
2022/05/26 05:34:29;;;;;;;;;;;;;;;;;;5084856;28;1160;-74
2022/05/26 05:36:56;;;;;;;;;;;;;;;;;;5066671;28;1028;-74
2022/05/26 05:39:21;;;;;;;;;;;;;;;;;;5047915;28;1327;-75
2022/05/26 05:41:46;;;;;;;;;;;;;;;;;;5062251;28;1282;-74
2022/05/26 05:44:12;;;;;;;;;;;;;;;;;;5064235;28;1905;-74
2022/05/26 05:46:53;;;;;;;;;;;;;;;;;;5061315;28;1098;-75
2022/05/26 05:49:22;;;;;;;;;;;;;;;;;;5049645;28;1390;-73
2022/05/26 05:51:47;;;;;;;;;;;;;;;;;;5062010;28;1118;-74
2022/05/26 05:54:22;;;;;;;;;;;;;;;;;;5066576;28;1192;-75
2022/05/26 05:56:48;;;;;;;;;;;;;;;;;;5078753;28;1025;-74
2022/05/26 05:59:13;;;;;;;;;;;;;;;;;;5083391;28;1305;-74
2022/05/26 06:01:39;;;;;;;;;;;;;;;;;;5075865;28;1121;-75
2022/05/26 06:04:05;;;;;;;;;;;;;;;;;;5047477;28;1886;-73
2022/05/26 06:06:58;;;;;;;;;;;;;;;;;;5061838;28;1303;-73
2022/05/26 06:09:23;;;;;;;;;;;;;;;;;;5058513;28;1263;-74
2022/05/26 06:11:49;;;;;;;;;;;;;;;;;;5079536;28;1210;-75
2022/05/26 06:14:14;;;;;;;;;;;;;;;;;;5081348;28;1285;-74
2022/05/26 06:16:40;;;;;;;;;;;;;;;;;;5082587;28;1219;-74
2022/05/26 06:19:05;;;;;;;;;;;;;;;;;;5064980;28;1371;-73
2022/05/26 06:21:32;;;;;;;;;;;;;;;;;;5079481;28;1200;-73
2022/05/26 06:23:58;;;;;;;;;;;;;;;;;;5081140;28;1894;-73
2022/05/26 06:26:26;;;;;;;;;;;;;;;;;;5079184;28;1231;-73
2022/05/26 06:31:36;;;;;;;;;;;;;;;;;;5064880;28;1013;-73
2022/05/26 06:39:30;;;;;;;;;;;;;;;;;;5085440;28;1032;-74
2022/05/26 06:42:07;;;;;;;;;;;;;;;;;;5068294;28;1486;-74
2022/05/26 06:44:38;;;;;;;;;;;;;;;;;;5080607;28;1919;-74
2022/05/26 06:47:05;;;;;;;;;;;;;;;;;;5064631;28;1325;-74
2022/05/26 06:49:31;;;;;;;;;;;;;;;;;;5063455;28;1185;-74
2022/05/26 06:51:57;;;;;;;;;;;;;;;;;;5059416;28;889;-75
2022/05/26 06:54:22;;;;;;;;;;;;;;;;;;5048794;28;1219;-74
2022/05/26 06:56:51;;;;;;;;;;;;;;;;;;5060938;28;939;-75
2022/05/26 06:59:16;;;;;;;;;;;;;;;;;;5062518;28;841;-75
2022/05/26 07:01:41;;;;;;;;;;;;;;;;;;5061084;28;1223;-75
2022/05/26 07:04:06;;;;;;;;;;;;;;;;;;5063583;28;1881;-75
2022/05/26 07:06:32;;;;;;;;;;;;;;;;;;5062739;28;976;-75
2022/05/26 07:08:57;;;;;;;;;;;;;;;;;;5062307;28;876;-75
2022/05/26 07:11:22;;;;;;;;;;;;;;;;;;5063343;28;991;-75
2022/05/26 07:13:51;;;;;;;;;;;;;;;;;;5062691;28;945;-75
2022/05/26 07:16:17;;;;;;;;;;;;;;;;;;5063989;28;1113;-75
2022/05/26 07:18:42;;;;;;;;;;;;;;;;;;5063074;28;1204;-75
2022/05/26 07:21:08;;;;;;;;;;;;;;;;;;5064582;28;1160;-75
2022/05/26 07:23:34;;;;;;;;;;;;;;;;;;5086736;28;1902;-77
2022/05/26 07:25:59;;;;;;;;;;;;;;;;;;5081739;28;1148;-77
2022/05/26 07:28:25;;;;;;;;;;;;;;;;;;5060585;28;1314;-77
2022/05/26 07:30:57;;;;;;;;;;;;;;;;;;5071891;28;1153;-77
2022/05/26 07:33:23;;;;;;;;;;;;;;;;;;5063086;28;1198;-77
2022/05/26 07:35:49;;;;;;;;;;;;;;;;;;5066055;28;1193;-77
2022/05/26 07:41:16;;;;;;;;;;;;;;;;;;5063625;28;1107;-77
2022/05/26 07:43:42;;;;;;;;;;;;;;;;;;5070268;28;1915;-77
2022/05/26 07:46:09;;;;;;;;;;;;;;;;;;5081427;28;1042;-76
2022/05/26 07:48:34;;;;;;;;;;;;;;;;;;5078794;28;1431;-77
2022/05/26 07:50:59;;;;;;;;;;;;;;;;;;5063351;28;1106;-74
2022/05/26 07:53:24;;;;;;;;;;;;;;;;;;5065323;28;1171;-75
2022/05/26 07:55:51;;;;;;;;;;;;;;;;;;5081778;28;1314;-75
2022/05/26 07:58:17;;;;;;;;;;;;;;;;;;5077754;28;1421;-74
2022/05/26 08:00:42;;;;;;;;;;;;;;;;;;5062644;28;1431;-74
2022/05/26 08:03:08;;;;;;;;;;;;;;;;;;5056158;28;1183;-74
2022/05/26 08:05:33;;;;;;;;;;;;;;;;;;5047403;28;2070;-74
2022/05/26 08:07:59;;;;;;;;;;;;;;;;;;5058137;28;1400;-75
2022/05/26 08:10:24;;;;;;;;;;;;;;;;;;5045251;28;1219;-74
2022/05/26 08:12:49;;;;;;;;;;;;;;;;;;5061308;28;909;-75
2022/05/26 08:15:15;;;;;;;;;;;;;;;;;;5057242;28;774;-75
2022/05/26 08:17:40;;;;;;;;;;;;;;;;;;5060417;28;841;-75
2022/05/26 08:20:06;;;;;;;;;;;;;;;;;;5060414;28;1306;-75
2022/05/26 08:22:32;;;;;;;;;;;;;;;;;;5060196;28;1207;-75
2022/05/26 08:24:58;;;;;;;;;;;;;;;;;;5060751;28;1890;-74
2022/05/26 08:27:24;;;;;;;;;;;;;;;;;;5059534;28;1258;-75
2022/05/26 08:29:49;;;;;;;;;;;;;;;;;;5058764;28;1277;-74
2022/05/26 08:32:18;;;;;;;;;;;;;;;;;;5059112;28;1224;-74
2022/05/26 08:34:44;;;;;;;;;;;;;;;;;;5062299;28;1226;-74
2022/05/26 08:37:16;;;;;;;;;;;;;;;;;;5058630;28;1361;-74
2022/05/26 08:39:42;;;;;;;;;;;;;;;;;;5078275;28;1239;-74
2022/05/26 08:42:12;;;;;;;;;;;;;;;;;;5078597;28;1206;-75
2022/05/26 08:44:38;;;;;;;;;;;;;;;;;;5080674;28;1961;-75
2022/05/26 08:47:12;;;;;;;;;;;;;;;;;;5057614;28;1165;-74
2022/05/26 08:49:40;;;;;;;;;;;;;;;;;;5067912;28;1047;-75
2022/05/26 08:52:16;;;;;;;;;;;;;;;;;;5064560;28;1361;-75
2022/05/26 08:54:51;;;;;;;;;;;;;;;;;;5063713;28;1168;-74
2022/05/26 08:57:21;;;;;;;;;;;;;;;;;;5061491;28;1226;-75
2022/05/26 08:59:47;;;;;;;;;;;;;;;;;;5063917;28;1159;-74
2022/05/26 09:02:23;;;;;;;;;;;;;;;;;;5062600;28;993;-74
2022/05/26 09:04:49;;;;;;;;;;;;;;;;;;5065110;28;1963;-75
2022/05/26 09:12:58;;;;;;;;;;;;;;;;;;5065563;28;667;-75
2022/05/26 09:15:24;;;;;;;;;;;;;;;;;;5049523;28;1184;-75
2022/05/26 09:17:50;;;;;;;;;;;;;;;;;;5065016;28;1239;-75
2022/05/26 09:20:41;;;;;;;;;;;;;;;;;;5064722;28;1034;-75
2022/05/26 09:23:11;;;;;;;;;;;;;;;;;;5076471;28;1327;-74
2022/05/26 09:25:47;;;;;;;;;;;;;;;;;;5083698;28;1959;-75
2022/05/26 09:28:13;;;;;;;;;;;;;;;;;;5078466;28;1210;-76
2022/05/26 09:30:38;;;;;;;;;;;;;;;;;;5084766;28;1321;-75
2022/05/26 09:33:18;;;;;;;;;;;;;;;;;;5082411;28;1373;-74
2022/05/26 09:35:43;;;;;;;;;;;;;;;;;;5084595;28;1164;-75
2022/05/26 09:38:15;;;;;;;;;;;;;;;;;;5062270;28;1073;-75
2022/05/26 09:40:41;;;;;;;;;;;;;;;;;;5077581;28;1298;-74
2022/05/26 09:43:09;;;;;;;;;;;;;;;;;;5080481;28;1128;-75
2022/05/26 09:45:34;;;;;;;;;;;;;;;;;;5085954;28;1961;-74
2022/05/26 09:48:01;;;;;;;;;;;;;;;;;;5084685;28;1179;-75
2022/05/26 09:50:32;;;;;;;;;;;;;;;;;;5084830;28;1274;-74
2022/05/26 09:52:58;;;;;;;;;;;;;;;;;;5085273;28;1223;-75
2022/05/26 09:55:30;;;;;;;;;;;;;;;;;;5080495;28;1258;-74
2022/05/26 09:58:27;;;;;;;;;;;;;;;;;;5082369;28;1124;-74
2022/05/26 10:00:53;;;;;;;;;;;;;;;;;;5082495;28;1132;-74
2022/05/26 10:03:18;;;;;;;;;;;;;;;;;;5079719;28;1162;-75
2022/05/26 10:06:02;;;;;;;;;;;;;;;;;;5084108;28;1975;-75
2022/05/26 10:08:38;;;;;;;;;;;;;;;;;;5061849;28;1347;-75
2022/05/26 10:11:11;;;;;;;;;;;;;;;;;;5060379;28;1318;-75
2022/05/26 10:13:49;;;;;;;;;;;;;;;;;;5079640;28;1168;-76
2022/05/26 10:16:20;;;;;;;;;;;;;;;;;;5080061;28;1184;-75
2022/05/26 10:18:57;;;;;;;;;;;;;;;;;;5071238;28;1162;-75
2022/05/26 10:21:31;;;;;;;;;;;;;;;;;;5081337;28;1230;-74
2022/05/26 10:23:56;;;;;;;;;;;;;;;;;;5080846;28;1969;-74
2022/05/26 10:26:37;;;;;;;;;;;;;;;;;;5077574;28;1284;-74
2022/05/26 10:29:06;;;;;;;;;;;;;;;;;;5080734;28;1341;-74
2022/05/26 10:31:34;;;;;;;;;;;;;;;;;;5082137;28;1348;-75
2022/05/26 10:34:27;;;;;;;;;;;;;;;;;;5081899;28;1140;-74
2022/05/26 10:37:11;;;;;;;;;;;;;;;;;;5081731;28;1156;-75
2022/05/26 10:39:39;;;;;;;;;;;;;;;;;;5081511;28;1330;-75
2022/05/26 10:42:08;;;;;;;;;;;;;;;;;;5079682;28;1337;-75
2022/05/26 10:44:42;;;;;;;;;;;;;;;;;;5080087;28;1905;-75
2022/05/26 10:47:18;;;;;;;;;;;;;;;;;;5082745;28;1167;-76
2022/05/26 10:49:47;;;;;;;;;;;;;;;;;;5082114;28;1210;-75
2022/05/26 10:52:17;;;;;;;;;;;;;;;;;;5081969;28;1344;-76
2022/05/26 10:54:42;;;;;;;;;;;;;;;;;;5081683;28;1206;-78
2022/05/26 10:57:26;;;;;;;;;;;;;;;;;;5079805;28;1470;-78
2022/05/26 10:59:59;;;;;;;;;;;;;;;;;;5080187;28;1180;-74
2022/05/26 11:02:25;;;;;;;;;;;;;;;;;;5083099;28;1104;-74
2022/05/26 11:05:01;;;;;;;;;;;;;;;;;;5076818;28;1894;-74
2022/05/26 11:07:47;;;;;;;;;;;;;;;;;;5062520;28;1061;-74
2022/05/26 11:10:12;;;;;;;;;;;;;;;;;;5068480;28;1278;-73
2022/05/26 11:12:41;;;;;;;;;;;;;;;;;;5080661;28;1200;-74
2022/05/26 11:18:01;;;;;;;;;;;;;;;;;;5080651;28;1019;-73
2022/05/26 11:20:29;;;;;;;;;;;;;;;;;;5079284;28;1072;-74
2022/05/26 11:22:57;;;;;;;;;;;;;;;;;;5077421;28;1200;-72
2022/05/26 11:25:28;;;;;;;;;;;;;;;;;;5079389;28;1889;-72
2022/05/26 11:27:59;;;;;;;;;;;;;;;;;;5078899;28;1286;-72
2022/05/26 11:36:15;;;;;;;;;;;;;;;;;;5081342;28;1028;-72
2022/05/26 11:38:42;;;;;;;;;;;;;;;;;;5079599;28;1355;-72
2022/05/26 11:41:10;;;;;;;;;;;;;;;;;;5082539;28;1243;-72
2022/05/26 11:43:56;;;;;;;;;;;;;;;;;;5079492;28;1914;-74
2022/05/26 11:46:40;;;;;;;;;;;;;;;;;;5081083;28;1322;-72
2022/05/26 11:49:05;;;;;;;;;;;;;;;;;;5082532;28;1171;-73
2022/05/26 11:51:38;;;;;;;;;;;;;;;;;;5063380;28;1230;-72
2022/05/26 11:54:04;;;;;;;;;;;;;;;;;;5083211;28;1068;-73
2022/05/26 11:56:30;;;;;;;;;;;;;;;;;;5046873;28;1175;-72
2022/05/26 11:59:14;;;;;;;;;;;;;;;;;;5061324;28;1329;-72
2022/05/26 12:01:40;;;;;;;;;;;;;;;;;;5062977;28;1223;-73
2022/05/26 12:04:24;;;;;;;;;;;;;;;;;;5060688;28;1968;-73
2022/05/26 12:06:55;;;;;;;;;;;;;;;;;;5079921;28;1314;-72
2022/05/26 12:09:21;;;;;;;;;;;;;;;;;;5062149;28;872;-73
2022/05/26 12:12:00;;;;;;;;;;;;;;;;;;5062776;28;814;-73
2022/05/26 12:14:44;;;;;;;;;;;;;;;;;;5060029;28;774;-73
2022/05/26 12:17:29;;;;;;;;;;;;;;;;;;5064046;28;755;-73
2022/05/26 12:19:54;;;;;;;;;;;;;;;;;;5061038;28;954;-73
2022/05/26 12:22:22;;;;;;;;;;;;;;;;;;5063462;28;806;-73
2022/05/26 12:25:03;;;;;;;;;;;;;;;;;;5065459;28;1899;-73
2022/05/26 12:27:47;;;;;;;;;;;;;;;;;;5067153;28;817;-73
2022/05/26 12:30:28;;;;;;;;;;;;;;;;;;5064013;28;1262;-73
2022/05/26 12:32:53;;;;;;;;;;;;;;;;;;5067962;28;1318;-73
2022/05/26 12:35:25;;;;;;;;;;;;;;;;;;5061579;28;1334;-73
2022/05/26 12:38:02;;;;;;;;;;;;;;;;;;5072025;28;1215;-73
2022/05/26 12:40:34;;;;;;;;;;;;;;;;;;5080105;28;1332;-72
2022/05/26 12:43:09;;;;;;;;;;;;;;;;;;5084857;28;1148;-73
2022/05/26 12:45:48;;;;;;;;;;;;;;;;;;5082008;28;1910;-73
2022/05/26 12:48:22;;;;;;;;;;;;;;;;;;5084713;28;1280;-73
2022/05/26 12:50:48;;;;;;;;;;;;;;;;;;5086283;28;1427;-73
2022/05/26 12:53:17;;;;;;;;;;;;;;;;;;5068007;28;1211;-72
2022/05/26 12:55:49;;;;;;;;;;;;;;;;;;5083141;28;1420;-74
2022/05/26 12:58:23;;;;;;;;;;;;;;;;;;5086379;28;840;-73
2022/05/26 13:00:57;;;;;;;;;;;;;;;;;;5083582;28;1269;-73
2022/05/26 13:03:29;;;;;;;;;;;;;;;;;;5085004;28;893;-73
2022/05/26 13:06:26;;;;;;;;;;;;;;;;;;5086354;28;1918;-73
2022/05/26 13:08:51;;;;;;;;;;;;;;;;;;5072613;28;1154;-73
2022/05/26 13:11:19;;;;;;;;;;;;;;;;;;5061730;28;1318;-73
2022/05/26 13:13:54;;;;;;;;;;;;;;;;;;5063822;28;1282;-73
2022/05/26 13:16:22;;;;;;;;;;;;;;;;;;5063157;28;1231;-73
2022/05/26 13:18:47;;;;;;;;;;;;;;;;;;5061015;28;1199;-73
2022/05/26 13:21:23;;;;;;;;;;;;;;;;;;5067053;28;952;-73
2022/05/26 13:23:50;;;;;;;;;;;;;;;;;;5064079;28;1944;-74
2022/05/26 13:26:16;;;;;;;;;;;;;;;;;;5064029;28;1140;-73
2022/05/26 13:28:46;;;;;;;;;;;;;;;;;;5058806;28;1129;-72
2022/05/26 13:33:57;;;;;;;;;;;;;;;;;;5084001;28;1103;-73
2022/05/26 13:36:22;;;;;;;;;;;;;;;;;;5084177;28;1151;-73
2022/05/26 13:38:48;;;;;;;;;;;;;;;;;;5083016;28;1133;-74
2022/05/26 13:41:27;;;;;;;;;;;;;;;;;;5071651;28;1188;-74
2022/05/26 13:43:55;;;;;;;;;;;;;;;;;;5061953;28;1965;-74
2022/05/26 13:46:31;;;;;;;;;;;;;;;;;;5063954;28;1219;-73
2022/05/26 13:49:00;;;;;;;;;;;;;;;;;;5080305;28;1204;-74
2022/05/26 13:51:35;;;;;;;;;;;;;;;;;;5081553;28;1220;-74
2022/05/26 13:54:19;;;;;;;;;;;;;;;;;;5082847;28;1163;-74
2022/05/26 13:56:46;;;;;;;;;;;;;;;;;;5079675;28;1266;-73
2022/05/26 13:59:13;;;;;;;;;;;;;;;;;;5082127;28;1200;-74
2022/05/26 14:01:46;;;;;;;;;;;;;;;;;;5081600;28;1320;-74
2022/05/26 14:04:28;;;;;;;;;;;;;;;;;;5081775;28;2014;-74
2022/05/26 14:06:53;;;;;;;;;;;;;;;;;;5085540;28;1052;-74
2022/05/26 14:09:32;;;;;;;;;;;;;;;;;;5066368;28;1294;-75
2022/05/26 14:12:05;;;;;;;;;;;;;;;;;;5066400;28;1242;-75
2022/05/26 14:14:37;;;;;;;;;;;;;;;;;;5069700;28;1349;-74
2022/05/26 14:17:03;;;;;;;;;;;;;;;;;;5085416;28;1124;-76
2022/05/26 14:19:33;;;;;;;;;;;;;;;;;;5079823;28;1172;-73
2022/05/26 14:21:59;;;;;;;;;;;;;;;;;;5083414;28;1234;-73
2022/05/26 14:24:41;;;;;;;;;;;;;;;;;;5082202;28;1894;-75
2022/05/26 14:27:12;;;;;;;;;;;;;;;;;;5081074;28;1187;-76
2022/05/26 14:29:38;;;;;;;;;;;;;;;;;;5079892;28;1235;-77
2022/05/26 14:32:11;;;;;;;;;;;;;;;;;;5083397;28;1194;-76
2022/05/26 14:34:44;;;;;;;;;;;;;;;;;;5074561;28;1179;-76
2022/05/26 14:37:11;;;;;;;;;;;;;;;;;;5064353;28;1231;-76
2022/05/26 14:39:37;;;;;;;;;;;;;;;;;;5060741;28;1270;-76
2022/05/26 14:42:02;;;;;;;;;;;;;;;;;;5058852;28;1311;-76
2022/05/26 14:44:30;;;;;;;;;;;;;;;;;;5059078;28;2059;-75
2022/05/26 14:46:55;;;;;;;;;;;;;;;;;;5062203;28;1220;-76
2022/05/26 14:49:20;;;;;;;;;;;;;;;;;;5062103;28;1369;-76
2022/05/26 14:51:48;;;;;;;;;;;;;;;;;;5043039;28;1197;-76
2022/05/26 14:56:58;;;;;;;;;;;;;;;;;;5082337;28;1001;-75
2022/05/26 14:59:23;;;;;;;;;;;;;;;;;;5067428;28;1212;-73
2022/05/26 15:01:49;;;;;;;;;;;;;;;;;;5063053;28;1194;-74
2022/05/26 15:04:14;;;;;;;;;;;;;;;;;;5083934;28;1902;-73
2022/05/26 15:06:43;;;;;;;;;;;;;;;;;;5080160;28;1278;-74
2022/05/26 15:09:14;;;;;;;;;;;;;;;;;;5079566;28;1361;-74
2022/05/26 15:11:41;;;;;;;;;;;;;;;;;;5055964;28;1295;-75
2022/05/26 15:14:07;;;;;;;;;;;;;;;;;;5065345;28;1192;-73
2022/05/26 15:16:32;;;;;;;;;;;;;;;;;;5059023;28;1156;-73
2022/05/26 15:18:58;;;;;;;;;;;;;;;;;;5061588;28;1346;-72
2022/05/26 15:21:23;;;;;;;;;;;;;;;;;;5059377;28;1295;-73
2022/05/26 15:23:49;;;;;;;;;;;;;;;;;;5060805;28;1891;-73
2022/05/26 15:26:15;;;;;;;;;;;;;;;;;;5058348;28;1208;-73
2022/05/26 15:28:49;;;;;;;;;;;;;;;;;;5044108;28;1284;-72
2022/05/26 15:31:15;;;;;;;;;;;;;;;;;;5059701;28;1173;-72
2022/05/26 15:33:40;;;;;;;;;;;;;;;;;;5060864;28;1164;-73
2022/05/26 15:36:08;;;;;;;;;;;;;;;;;;5059864;28;1189;-73
2022/05/26 15:38:35;;;;;;;;;;;;;;;;;;5077847;28;1153;-72
2022/05/26 15:41:00;;;;;;;;;;;;;;;;;;5080673;28;1045;-72
2022/05/26 15:43:26;;;;;;;;;;;;;;;;;;5083771;28;1444;-72
2022/05/26 15:45:54;;;;;;;;;;;;;;;;;;5078642;28;1961;-72
2022/05/26 15:48:22;;;;;;;;;;;;;;;;;;5083185;28;816;-72
2022/05/26 15:50:48;;;;;;;;;;;;;;;;;;5080746;28;1372;-72
2022/05/26 15:53:13;;;;;;;;;;;;;;;;;;5082780;28;1495;-73
2022/05/26 15:55:42;;;;;;;;;;;;;;;;;;5062898;28;1345;-72
2022/05/26 15:58:08;;;;;;;;;;;;;;;;;;5083511;28;1309;-72
2022/05/26 16:00:36;;;;;;;;;;;;;;;;;;5084257;28;865;-73
2022/05/26 16:03:02;;;;;;;;;;;;;;;;;;5083666;28;1136;-73
2022/05/26 16:05:27;;;;;;;;;;;;;;;;;;5082809;28;1902;-72
2022/05/26 16:07:53;;;;;;;;;;;;;;;;;;5081716;28;1164;-73
2022/05/26 16:10:21;;;;;;;;;;;;;;;;;;5075076;28;1198;-72
2022/05/26 16:12:48;;;;;;;;;;;;;;;;;;5060896;28;1195;-74
2022/05/26 16:15:14;;;;;;;;;;;;;;;;;;5073229;28;1234;-74
2022/05/26 16:17:39;;;;;;;;;;;;;;;;;;5062433;28;865;-73
2022/05/26 16:20:06;;;;;;;;;;;;;;;;;;5063271;28;719;-72
2022/05/26 16:22:32;;;;;;;;;;;;;;;;;;5065303;28;1149;-72
2022/05/26 16:24:57;;;;;;;;;;;;;;;;;;5040650;28;1886;-73
2022/05/26 16:27:22;;;;;;;;;;;;;;;;;;5062893;28;1175;-72
2022/05/26 16:29:48;;;;;;;;;;;;;;;;;;5040764;28;1306;-72
2022/05/26 16:32:14;;;;;;;;;;;;;;;;;;5046188;28;1346;-72
2022/05/26 16:34:40;;;;;;;;;;;;;;;;;;5042762;28;1199;-72
2022/05/26 16:37:05;;;;;;;;;;;;;;;;;;5043167;28;1093;-72
2022/05/26 16:39:37;;;;;;;;;;;;;;;;;;5044972;28;1302;-72
2022/05/26 16:42:02;;;;;;;;;;;;;;;;;;5058694;28;1176;-72
2022/05/26 16:44:28;;;;;;;;;;;;;;;;;;5060479;28;1902;-72
2022/05/26 16:46:54;;;;;;;;;;;;;;;;;;5073624;28;1198;-72
2022/05/26 16:49:19;;;;;;;;;;;;;;;;;;5080598;28;1362;-74
2022/05/26 16:51:45;;;;;;;;;;;;;;;;;;5059556;28;1293;-72
2022/05/26 16:54:22;;;;;;;;;;;;;;;;;;5082626;28;1264;-72
2022/05/26 16:56:47;;;;;;;;;;;;;;;;;;5077436;28;1178;-72
2022/05/26 16:59:13;;;;;;;;;;;;;;;;;;5080651;28;1167;-74
2022/05/26 17:01:38;;;;;;;;;;;;;;;;;;5060877;28;1200;-71
2022/05/26 17:04:05;;;;;;;;;;;;;;;;;;5082358;28;1886;-71
2022/05/26 17:06:30;;;;;;;;;;;;;;;;;;5079893;28;1258;-72
2022/05/26 17:08:59;;;;;;;;;;;;;;;;;;5081972;28;1178;-71
2022/05/26 17:11:25;;;;;;;;;;;;;;;;;;5065793;28;1397;-74
2022/05/26 17:22:02;;;;;;;;;;;;;;;;;;5063973;28;660;-71
2022/05/26 17:24:28;;;;;;;;;;;;;;;;;;5050940;28;1889;-71
2022/05/26 17:26:54;;;;;;;;;;;;;;;;;;5057698;28;853;-71
2022/05/26 17:29:19;;;;;;;;;;;;;;;;;;5060525;28;1129;-73
2022/05/26 17:31:48;;;;;;;;;;;;;;;;;;5041448;28;1310;-74
2022/05/26 17:34:14;;;;;;;;;;;;;;;;;;5065526;28;909;-74
2022/05/26 17:36:41;;;;;;;;;;;;;;;;;;5062733;28;778;-72
2022/05/26 17:39:12;;;;;;;;;;;;;;;;;;5065007;28;1121;-71
2022/05/26 17:41:37;;;;;;;;;;;;;;;;;;5061349;28;1365;-72
2022/05/26 17:44:04;;;;;;;;;;;;;;;;;;5060658;28;1957;-72
2022/05/26 17:46:30;;;;;;;;;;;;;;;;;;5063602;28;1267;-72
2022/05/26 17:48:56;;;;;;;;;;;;;;;;;;5041732;28;1196;-72
2022/05/26 17:51:22;;;;;;;;;;;;;;;;;;5066216;28;1152;-72
2022/05/26 17:53:48;;;;;;;;;;;;;;;;;;5068259;28;1353;-72
2022/05/26 17:56:13;;;;;;;;;;;;;;;;;;5081364;28;837;-72
2022/05/26 17:58:38;;;;;;;;;;;;;;;;;;5084760;28;786;-72
2022/05/26 18:01:05;;;;;;;;;;;;;;;;;;5082536;28;857;-72
2022/05/26 18:03:36;;;;;;;;;;;;;;;;;;5083045;28;1222;-72
2022/05/26 18:06:06;;;;;;;;;;;;;;;;;;5085777;28;1894;-72
2022/05/26 18:08:32;;;;;;;;;;;;;;;;;;5080279;28;1310;-72